sensor_id;sensor_type;location;lat;lon;timestamp;P1;durP1;ratioP1;P2;durP2;ratioP2
16440;SDS011;8330;-33.858;151.184;2023-07-29T00:00:41;3.95;;;1.73;;
16440;SDS011;8330;-33.858;151.184;2023-07-29T00:03:14;2.53;;;1.70;;
16440;SDS011;8330;-33.858;151.184;2023-07-29T00:05:45;3.05;;;1.42;;
16440;SDS011;8330;-33.858;151.184;2023-07-29T00:08:16;2.28;;;1.55;;
16440;SDS011;8330;-33.858;151.184;2023-07-29T00:10:46;4.75;;;1.70;;
16440;SDS011;8330;-33.858;151.184;2023-07-29T00:13:17;6.10;;;2.00;;
16440;SDS011;8330;-33.858;151.184;2023-07-29T00:15:48;5.82;;;2.35;;
16440;SDS011;8330;-33.858;151.184;2023-07-29T00:18:20;3.53;;;2.08;;
16440;SDS011;8330;-33.858;151.184;2023-07-29T00:20:51;3.33;;;2.10;;
16440;SDS011;8330;-33.858;151.184;2023-07-29T00:23:22;3.95;;;2.00;;
16440;SDS011;8330;-33.858;151.184;2023-07-29T00:25:53;3.88;;;1.95;;
16440;SDS011;8330;-33.858;151.184;2023-07-29T00:28:24;2.58;;;1.48;;
16440;SDS011;8330;-33.858;151.184;2023-07-29T00:30:54;3.53;;;1.55;;
16440;SDS011;8330;-33.858;151.184;2023-07-29T00:33:27;2.42;;;1.45;;
16440;SDS011;8330;-33.858;151.184;2023-07-29T00:35:58;4.32;;;1.52;;
16440;SDS011;8330;-33.858;151.184;2023-07-29T00:38:29;2.80;;;1.33;;
16440;SDS011;8330;-33.858;151.184;2023-07-29T00:41:00;4.25;;;1.60;;
16440;SDS011;8330;-33.858;151.184;2023-07-29T00:43:32;2.45;;;1.50;;
16440;SDS011;8330;-33.858;151.184;2023-07-29T00:46:03;2.95;;;1.50;;
16440;SDS011;8330;-33.858;151.184;2023-07-29T00:48:37;3.45;;;1.17;;
16440;SDS011;8330;-33.858;151.184;2023-07-29T00:51:08;2.70;;;1.40;;
16440;SDS011;8330;-33.858;151.184;2023-07-29T00:53:39;1.63;;;1.15;;
16440;SDS011;8330;-33.858;151.184;2023-07-29T00:56:10;1.45;;;0.95;;
16440;SDS011;8330;-33.858;151.184;2023-07-29T00:58:41;2.63;;;1.20;;
16440;SDS011;8330;-33.858;151.184;2023-07-29T01:01:13;3.17;;;1.02;;
16440;SDS011;8330;-33.858;151.184;2023-07-29T01:03:46;1.27;;;0.80;;
16440;SDS011;8330;-33.858;151.184;2023-07-29T01:06:18;1.60;;;0.90;;
16440;SDS011;8330;-33.858;151.184;2023-07-29T01:08:59;0.90;;;0.70;;
16440;SDS011;8330;-33.858;151.184;2023-07-29T01:11:35;1.92;;;0.73;;
16440;SDS011;8330;-33.858;151.184;2023-07-29T01:14:15;3.10;;;0.75;;
16440;SDS011;8330;-33.858;151.184;2023-07-29T01:16:52;2.17;;;0.80;;
16440;SDS011;8330;-33.858;151.184;2023-07-29T01:19:39;3.47;;;0.90;;
16440;SDS011;8330;-33.858;151.184;2023-07-29T01:22:24;1.83;;;0.70;;
16440;SDS011;8330;-33.858;151.184;2023-07-29T01:25:00;3.08;;;0.70;;
16440;SDS011;8330;-33.858;151.184;2023-07-29T01:27:31;2.58;;;0.85;;
16440;SDS011;8330;-33.858;151.184;2023-07-29T01:30:02;1.50;;;0.70;;
16440;SDS011;8330;-33.858;151.184;2023-07-29T01:32:36;2.20;;;0.90;;
16440;SDS011;8330;-33.858;151.184;2023-07-29T01:35:11;2.80;;;0.70;;
16440;SDS011;8330;-33.858;151.184;2023-07-29T01:37:49;1.50;;;0.63;;
16440;SDS011;8330;-33.858;151.184;2023-07-29T01:40:24;2.00;;;0.90;;
16440;SDS011;8330;-33.858;151.184;2023-07-29T01:42:57;1.20;;;0.63;;
16440;SDS011;8330;-33.858;151.184;2023-07-29T01:45:28;1.73;;;0.80;;
16440;SDS011;8330;-33.858;151.184;2023-07-29T01:48:02;2.22;;;0.80;;
16440;SDS011;8330;-33.858;151.184;2023-07-29T01:50:33;4.13;;;0.68;;
16440;SDS011;8330;-33.858;151.184;2023-07-29T01:53:04;1.35;;;0.80;;
16440;SDS011;8330;-33.858;151.184;2023-07-29T01:55:37;2.25;;;0.60;;
16440;SDS011;8330;-33.858;151.184;2023-07-29T01:58:08;3.85;;;0.80;;
16440;SDS011;8330;-33.858;151.184;2023-07-29T02:00:40;2.33;;;0.80;;
16440;SDS011;8330;-33.858;151.184;2023-07-29T02:03:11;1.30;;;0.65;;
16440;SDS011;8330;-33.858;151.184;2023-07-29T02:05:42;1.98;;;0.70;;
16440;SDS011;8330;-33.858;151.184;2023-07-29T02:08:13;4.38;;;1.13;;
16440;SDS011;8330;-33.858;151.184;2023-07-29T02:10:46;1.63;;;0.60;;
16440;SDS011;8330;-33.858;151.184;2023-07-29T02:13:16;1.38;;;0.57;;
16440;SDS011;8330;-33.858;151.184;2023-07-29T02:15:47;1.17;;;0.55;;
16440;SDS011;8330;-33.858;151.184;2023-07-29T02:18:18;1.05;;;0.80;;
16440;SDS011;8330;-33.858;151.184;2023-07-29T02:20:49;1.77;;;0.80;;
16440;SDS011;8330;-33.858;151.184;2023-07-29T02:23:19;1.48;;;0.60;;
16440;SDS011;8330;-33.858;151.184;2023-07-29T02:25:52;1.42;;;0.60;;
16440;SDS011;8330;-33.858;151.184;2023-07-29T02:28:23;1.08;;;0.55;;
16440;SDS011;8330;-33.858;151.184;2023-07-29T02:33:39;1.77;;;0.80;;
16440;SDS011;8330;-33.858;151.184;2023-07-29T02:36:11;1.60;;;0.70;;
16440;SDS011;8330;-33.858;151.184;2023-07-29T02:38:42;1.45;;;1.00;;
16440;SDS011;8330;-33.858;151.184;2023-07-29T02:41:15;2.22;;;0.80;;
16440;SDS011;8330;-33.858;151.184;2023-07-29T02:43:48;1.73;;;1.00;;
16440;SDS011;8330;-33.858;151.184;2023-07-29T02:46:19;3.97;;;1.13;;
16440;SDS011;8330;-33.858;151.184;2023-07-29T02:48:51;2.67;;;0.90;;
16440;SDS011;8330;-33.858;151.184;2023-07-29T02:51:22;1.63;;;0.80;;
16440;SDS011;8330;-33.858;151.184;2023-07-29T02:53:52;2.75;;;0.90;;
16440;SDS011;8330;-33.858;151.184;2023-07-29T02:56:25;2.22;;;0.70;;
16440;SDS011;8330;-33.858;151.184;2023-07-29T02:58:56;2.55;;;0.90;;
16440;SDS011;8330;-33.858;151.184;2023-07-29T03:01:27;3.17;;;1.10;;
16440;SDS011;8330;-33.858;151.184;2023-07-29T03:03:58;4.68;;;1.20;;
16440;SDS011;8330;-33.858;151.184;2023-07-29T03:06:29;2.22;;;1.50;;
16440;SDS011;8330;-33.858;151.184;2023-07-29T03:09:01;1.95;;;1.50;;
16440;SDS011;8330;-33.858;151.184;2023-07-29T03:11:35;2.80;;;1.20;;
16440;SDS011;8330;-33.858;151.184;2023-07-29T03:14:05;2.38;;;1.17;;
16440;SDS011;8330;-33.858;151.184;2023-07-29T03:16:36;1.73;;;0.90;;
16440;SDS011;8330;-33.858;151.184;2023-07-29T03:19:07;1.17;;;0.90;;
16440;SDS011;8330;-33.858;151.184;2023-07-29T03:21:38;1.27;;;1.10;;
16440;SDS011;8330;-33.858;151.184;2023-07-29T03:24:08;1.52;;;1.15;;
16440;SDS011;8330;-33.858;151.184;2023-07-29T03:26:41;1.98;;;1.00;;
16440;SDS011;8330;-33.858;151.184;2023-07-29T03:29:13;3.95;;;1.05;;
16440;SDS011;8330;-33.858;151.184;2023-07-29T03:31:44;6.50;;;1.23;;
16440;SDS011;8330;-33.858;151.184;2023-07-29T03:34:16;3.05;;;0.80;;
16440;SDS011;8330;-33.858;151.184;2023-07-29T03:36:46;4.15;;;1.10;;
16440;SDS011;8330;-33.858;151.184;2023-07-29T03:39:18;2.47;;;1.10;;
16440;SDS011;8330;-33.858;151.184;2023-07-29T03:41:51;3.38;;;0.98;;
16440;SDS011;8330;-33.858;151.184;2023-07-29T03:44:21;3.00;;;0.93;;
16440;SDS011;8330;-33.858;151.184;2023-07-29T03:46:53;4.82;;;1.10;;
16440;SDS011;8330;-33.858;151.184;2023-07-29T03:49:24;2.28;;;1.00;;
16440;SDS011;8330;-33.858;151.184;2023-07-29T03:51:55;2.30;;;0.90;;
16440;SDS011;8330;-33.858;151.184;2023-07-29T03:54:25;2.75;;;0.80;;
16440;SDS011;8330;-33.858;151.184;2023-07-29T03:56:58;2.60;;;0.90;;
16440;SDS011;8330;-33.858;151.184;2023-07-29T03:59:29;3.65;;;1.10;;
16440;SDS011;8330;-33.858;151.184;2023-07-29T04:01:59;4.88;;;1.20;;
16440;SDS011;8330;-33.858;151.184;2023-07-29T04:04:30;2.67;;;1.00;;
16440;SDS011;8330;-33.858;151.184;2023-07-29T04:07:01;3.25;;;0.95;;
16440;SDS011;8330;-33.858;151.184;2023-07-29T04:09:32;2.88;;;1.02;;
16440;SDS011;8330;-33.858;151.184;2023-07-29T04:12:06;3.53;;;1.20;;
16440;SDS011;8330;-33.858;151.184;2023-07-29T04:14:37;3.25;;;0.98;;
16440;SDS011;8330;-33.858;151.184;2023-07-29T04:17:09;1.85;;;0.82;;
16440;SDS011;8330;-33.858;151.184;2023-07-29T04:19:40;3.92;;;1.27;;
16440;SDS011;8330;-33.858;151.184;2023-07-29T04:22:11;2.42;;;1.08;;
16440;SDS011;8330;-33.858;151.184;2023-07-29T04:24:42;3.40;;;1.20;;
16440;SDS011;8330;-33.858;151.184;2023-07-29T04:27:14;3.90;;;1.10;;
16440;SDS011;8330;-33.858;151.184;2023-07-29T04:29:45;3.10;;;1.02;;
16440;SDS011;8330;-33.858;151.184;2023-07-29T04:32:16;2.63;;;1.17;;
16440;SDS011;8330;-33.858;151.184;2023-07-29T04:34:47;1.08;;;0.90;;
16440;SDS011;8330;-33.858;151.184;2023-07-29T04:37:17;3.42;;;1.20;;
16440;SDS011;8330;-33.858;151.184;2023-07-29T04:39:48;2.88;;;1.10;;
16440;SDS011;8330;-33.858;151.184;2023-07-29T04:42:21;3.25;;;0.95;;
16440;SDS011;8330;-33.858;151.184;2023-07-29T04:44:52;7.22;;;1.40;;
16440;SDS011;8330;-33.858;151.184;2023-07-29T04:47:22;2.10;;;0.98;;
16440;SDS011;8330;-33.858;151.184;2023-07-29T04:49:53;2.67;;;1.00;;
16440;SDS011;8330;-33.858;151.184;2023-07-29T04:52:24;2.60;;;1.08;;
16440;SDS011;8330;-33.858;151.184;2023-07-29T04:54:56;2.42;;;1.08;;
16440;SDS011;8330;-33.858;151.184;2023-07-29T04:57:29;4.00;;;1.20;;
16440;SDS011;8330;-33.858;151.184;2023-07-29T05:00:02;5.18;;;2.05;;
16440;SDS011;8330;-33.858;151.184;2023-07-29T05:02:33;6.47;;;3.08;;
16440;SDS011;8330;-33.858;151.184;2023-07-29T05:05:04;4.70;;;2.72;;
16440;SDS011;8330;-33.858;151.184;2023-07-29T05:07:35;3.95;;;2.65;;
16440;SDS011;8330;-33.858;151.184;2023-07-29T05:10:07;3.42;;;1.60;;
16440;SDS011;8330;-33.858;151.184;2023-07-29T05:12:40;3.00;;;1.33;;
16440;SDS011;8330;-33.858;151.184;2023-07-29T05:15:12;2.75;;;1.35;;
16440;SDS011;8330;-33.858;151.184;2023-07-29T05:17:45;6.35;;;1.63;;
16440;SDS011;8330;-33.858;151.184;2023-07-29T05:20:15;4.05;;;1.48;;
16440;SDS011;8330;-33.858;151.184;2023-07-29T05:22:48;6.70;;;1.48;;
16440;SDS011;8330;-33.858;151.184;2023-07-29T05:25:18;3.25;;;1.10;;
16440;SDS011;8330;-33.858;151.184;2023-07-29T05:27:52;1.92;;;1.13;;
16440;SDS011;8330;-33.858;151.184;2023-07-29T05:30:23;2.70;;;1.13;;
16440;SDS011;8330;-33.858;151.184;2023-07-29T05:32:57;3.03;;;1.45;;
16440;SDS011;8330;-33.858;151.184;2023-07-29T05:35:28;4.35;;;1.30;;
16440;SDS011;8330;-33.858;151.184;2023-07-29T05:37:59;2.22;;;1.00;;
16440;SDS011;8330;-33.858;151.184;2023-07-29T05:40:31;3.22;;;1.30;;
16440;SDS011;8330;-33.858;151.184;2023-07-29T05:43:04;2.60;;;1.20;;
16440;SDS011;8330;-33.858;151.184;2023-07-29T05:45:36;3.15;;;1.10;;
16440;SDS011;8330;-33.858;151.184;2023-07-29T05:48:08;4.47;;;1.30;;
16440;SDS011;8330;-33.858;151.184;2023-07-29T05:50:38;6.15;;;1.33;;
16440;SDS011;8330;-33.858;151.184;2023-07-29T05:53:09;2.55;;;1.27;;
16440;SDS011;8330;-33.858;151.184;2023-07-29T05:55:40;3.65;;;1.48;;
16440;SDS011;8330;-33.858;151.184;2023-07-29T05:58:15;5.75;;;1.38;;
16440;SDS011;8330;-33.858;151.184;2023-07-29T06:00:46;1.95;;;1.17;;
16440;SDS011;8330;-33.858;151.184;2023-07-29T06:03:17;3.42;;;1.20;;
16440;SDS011;8330;-33.858;151.184;2023-07-29T06:05:49;3.28;;;1.17;;
16440;SDS011;8330;-33.858;151.184;2023-07-29T06:08:19;3.58;;;1.13;;
16440;SDS011;8330;-33.858;151.184;2023-07-29T06:10:54;6.00;;;1.38;;
16440;SDS011;8330;-33.858;151.184;2023-07-29T06:13:28;4.10;;;1.45;;
16440;SDS011;8330;-33.858;151.184;2023-07-29T06:15:59;3.65;;;1.40;;
16440;SDS011;8330;-33.858;151.184;2023-07-29T06:18:30;2.25;;;1.33;;
16440;SDS011;8330;-33.858;151.184;2023-07-29T06:21:01;2.95;;;1.27;;
16440;SDS011;8330;-33.858;151.184;2023-07-29T06:23:34;3.28;;;1.20;;
16440;SDS011;8330;-33.858;151.184;2023-07-29T06:26:05;3.67;;;1.30;;
16440;SDS011;8330;-33.858;151.184;2023-07-29T06:28:39;4.25;;;1.10;;
16440;SDS011;8330;-33.858;151.184;2023-07-29T06:31:10;1.95;;;1.00;;
16440;SDS011;8330;-33.858;151.184;2023-07-29T06:33:41;2.13;;;1.20;;
16440;SDS011;8330;-33.858;151.184;2023-07-29T06:36:13;2.22;;;0.98;;
16440;SDS011;8330;-33.858;151.184;2023-07-29T06:38:44;2.13;;;1.10;;
16440;SDS011;8330;-33.858;151.184;2023-07-29T06:41:14;2.40;;;1.10;;
16440;SDS011;8330;-33.858;151.184;2023-07-29T06:43:48;1.52;;;0.93;;
16440;SDS011;8330;-33.858;151.184;2023-07-29T06:46:19;3.25;;;1.08;;
16440;SDS011;8330;-33.858;151.184;2023-07-29T06:48:50;2.75;;;1.13;;
16440;SDS011;8330;-33.858;151.184;2023-07-29T06:51:20;3.33;;;0.98;;
16440;SDS011;8330;-33.858;151.184;2023-07-29T06:53:52;2.38;;;1.10;;
16440;SDS011;8330;-33.858;151.184;2023-07-29T06:56:23;4.32;;;1.20;;
16440;SDS011;8330;-33.858;151.184;2023-07-29T06:58:57;2.83;;;1.15;;
16440;SDS011;8330;-33.858;151.184;2023-07-29T07:01:28;4.63;;;1.10;;
16440;SDS011;8330;-33.858;151.184;2023-07-29T07:03:59;3.45;;;1.17;;
16440;SDS011;8330;-33.858;151.184;2023-07-29T07:06:31;3.65;;;1.10;;
16440;SDS011;8330;-33.858;151.184;2023-07-29T07:09:03;2.35;;;1.05;;
16440;SDS011;8330;-33.858;151.184;2023-07-29T07:11:35;3.25;;;1.30;;
16440;SDS011;8330;-33.858;151.184;2023-07-29T07:14:10;1.90;;;0.82;;
16440;SDS011;8330;-33.858;151.184;2023-07-29T07:16:41;3.70;;;1.30;;
16440;SDS011;8330;-33.858;151.184;2023-07-29T07:19:15;6.82;;;1.52;;
16440;SDS011;8330;-33.858;151.184;2023-07-29T07:21:46;2.00;;;1.20;;
16440;SDS011;8330;-33.858;151.184;2023-07-29T07:24:17;2.03;;;1.20;;
16440;SDS011;8330;-33.858;151.184;2023-07-29T07:26:48;3.85;;;1.30;;
16440;SDS011;8330;-33.858;151.184;2023-07-29T07:29:24;3.65;;;1.33;;
16440;SDS011;8330;-33.858;151.184;2023-07-29T07:31:56;3.47;;;1.33;;
16440;SDS011;8330;-33.858;151.184;2023-07-29T07:34:29;3.03;;;1.40;;
16440;SDS011;8330;-33.858;151.184;2023-07-29T07:37:01;3.80;;;1.40;;
16440;SDS011;8330;-33.858;151.184;2023-07-29T07:39:33;3.72;;;1.17;;
16440;SDS011;8330;-33.858;151.184;2023-07-29T07:42:06;3.33;;;1.45;;
16440;SDS011;8330;-33.858;151.184;2023-07-29T07:44:40;1.35;;;1.02;;
16440;SDS011;8330;-33.858;151.184;2023-07-29T07:47:12;2.22;;;1.20;;
16440;SDS011;8330;-33.858;151.184;2023-07-29T07:49:45;1.58;;;1.20;;
16440;SDS011;8330;-33.858;151.184;2023-07-29T07:52:17;2.00;;;1.27;;
16440;SDS011;8330;-33.858;151.184;2023-07-29T07:54:51;3.45;;;1.48;;
16440;SDS011;8330;-33.858;151.184;2023-07-29T07:57:23;8.38;;;4.82;;
16440;SDS011;8330;-33.858;151.184;2023-07-29T07:59:56;7.15;;;4.85;;
16440;SDS011;8330;-33.858;151.184;2023-07-29T08:02:27;4.55;;;3.17;;
16440;SDS011;8330;-33.858;151.184;2023-07-29T08:04:58;5.30;;;2.95;;
16440;SDS011;8330;-33.858;151.184;2023-07-29T08:07:30;3.70;;;2.60;;
16440;SDS011;8330;-33.858;151.184;2023-07-29T08:10:01;5.65;;;2.28;;
16440;SDS011;8330;-33.858;151.184;2023-07-29T08:12:32;3.85;;;2.10;;
16440;SDS011;8330;-33.858;151.184;2023-07-29T08:15:07;3.80;;;1.67;;
16440;SDS011;8330;-33.858;151.184;2023-07-29T08:17:38;3.47;;;1.75;;
16440;SDS011;8330;-33.858;151.184;2023-07-29T08:20:09;3.25;;;1.80;;
16440;SDS011;8330;-33.858;151.184;2023-07-29T08:22:42;3.63;;;1.67;;
16440;SDS011;8330;-33.858;151.184;2023-07-29T08:25:16;5.70;;;2.10;;
16440;SDS011;8330;-33.858;151.184;2023-07-29T08:27:47;3.13;;;1.90;;
16440;SDS011;8330;-33.858;151.184;2023-07-29T08:30:20;4.25;;;2.13;;
16440;SDS011;8330;-33.858;151.184;2023-07-29T08:32:51;4.53;;;2.47;;
16440;SDS011;8330;-33.858;151.184;2023-07-29T08:35:23;4.93;;;2.30;;
16440;SDS011;8330;-33.858;151.184;2023-07-29T08:37:54;2.97;;;1.70;;
16440;SDS011;8330;-33.858;151.184;2023-07-29T08:40:27;3.42;;;1.90;;
16440;SDS011;8330;-33.858;151.184;2023-07-29T08:42:59;7.68;;;2.10;;
16440;SDS011;8330;-33.858;151.184;2023-07-29T08:45:35;4.35;;;2.03;;
16440;SDS011;8330;-33.858;151.184;2023-07-29T08:48:07;3.65;;;1.80;;
16440;SDS011;8330;-33.858;151.184;2023-07-29T08:50:39;8.02;;;2.30;;
16440;SDS011;8330;-33.858;151.184;2023-07-29T08:53:13;4.32;;;2.22;;
16440;SDS011;8330;-33.858;151.184;2023-07-29T08:55:44;4.40;;;2.13;;
16440;SDS011;8330;-33.858;151.184;2023-07-29T08:58:16;3.78;;;2.25;;
16440;SDS011;8330;-33.858;151.184;2023-07-29T09:00:49;4.32;;;2.50;;
16440;SDS011;8330;-33.858;151.184;2023-07-29T09:03:21;4.75;;;2.50;;
16440;SDS011;8330;-33.858;151.184;2023-07-29T09:05:54;4.13;;;2.75;;
16440;SDS011;8330;-33.858;151.184;2023-07-29T09:08:27;6.10;;;2.40;;
16440;SDS011;8330;-33.858;151.184;2023-07-29T09:11:00;4.10;;;2.28;;
16440;SDS011;8330;-33.858;151.184;2023-07-29T09:13:33;4.20;;;2.10;;
16440;SDS011;8330;-33.858;151.184;2023-07-29T09:19:11;3.05;;;1.95;;
16440;SDS011;8330;-33.858;151.184;2023-07-29T09:21:46;3.38;;;2.00;;
16440;SDS011;8330;-33.858;151.184;2023-07-29T09:24:20;5.30;;;2.08;;
16440;SDS011;8330;-33.858;151.184;2023-07-29T09:26:58;3.40;;;2.20;;
16440;SDS011;8330;-33.858;151.184;2023-07-29T09:29:35;8.30;;;5.82;;
16440;SDS011;8330;-33.858;151.184;2023-07-29T09:32:19;5.60;;;4.05;;
16440;SDS011;8330;-33.858;151.184;2023-07-29T09:35:02;5.93;;;3.22;;
16440;SDS011;8330;-33.858;151.184;2023-07-29T09:37:46;3.80;;;3.40;;
16440;SDS011;8330;-33.858;151.184;2023-07-29T09:40:18;6.15;;;3.05;;
16440;SDS011;8330;-33.858;151.184;2023-07-29T09:42:59;4.65;;;2.60;;
16440;SDS011;8330;-33.858;151.184;2023-07-29T09:45:41;4.93;;;2.63;;
16440;SDS011;8330;-33.858;151.184;2023-07-29T09:48:22;3.85;;;2.38;;
16440;SDS011;8330;-33.858;151.184;2023-07-29T09:51:02;4.65;;;2.22;;
16440;SDS011;8330;-33.858;151.184;2023-07-29T09:53:40;3.35;;;1.95;;
16440;SDS011;8330;-33.858;151.184;2023-07-29T09:56:14;3.28;;;1.90;;
16440;SDS011;8330;-33.858;151.184;2023-07-29T09:58:58;3.25;;;2.03;;
16440;SDS011;8330;-33.858;151.184;2023-07-29T10:01:33;3.88;;;2.20;;
16440;SDS011;8330;-33.858;151.184;2023-07-29T10:04:07;3.20;;;1.95;;
16440;SDS011;8330;-33.858;151.184;2023-07-29T10:06:45;3.17;;;1.98;;
16440;SDS011;8330;-33.858;151.184;2023-07-29T10:09:21;5.03;;;2.20;;
16440;SDS011;8330;-33.858;151.184;2023-07-29T10:11:59;3.35;;;1.90;;
16440;SDS011;8330;-33.858;151.184;2023-07-29T10:14:33;2.63;;;2.00;;
16440;SDS011;8330;-33.858;151.184;2023-07-29T10:17:08;4.57;;;2.15;;
16440;SDS011;8330;-33.858;151.184;2023-07-29T10:19:40;4.60;;;2.38;;
16440;SDS011;8330;-33.858;151.184;2023-07-29T10:22:28;4.82;;;2.40;;
16440;SDS011;8330;-33.858;151.184;2023-07-29T10:25:08;4.05;;;2.50;;
16440;SDS011;8330;-33.858;151.184;2023-07-29T10:27:52;5.45;;;3.40;;
16440;SDS011;8330;-33.858;151.184;2023-07-29T10:30:30;8.02;;;4.45;;
16440;SDS011;8330;-33.858;151.184;2023-07-29T10:33:03;6.28;;;3.88;;
16440;SDS011;8330;-33.858;151.184;2023-07-29T10:35:38;5.18;;;3.20;;
16440;SDS011;8330;-33.858;151.184;2023-07-29T10:38:25;4.07;;;2.90;;
16440;SDS011;8330;-33.858;151.184;2023-07-29T10:41:04;5.72;;;2.85;;
16440;SDS011;8330;-33.858;151.184;2023-07-29T10:43:36;4.70;;;2.50;;
16440;SDS011;8330;-33.858;151.184;2023-07-29T10:46:20;6.72;;;2.95;;
16440;SDS011;8330;-33.858;151.184;2023-07-29T10:49:00;4.45;;;2.80;;
16440;SDS011;8330;-33.858;151.184;2023-07-29T10:51:44;5.50;;;3.05;;
16440;SDS011;8330;-33.858;151.184;2023-07-29T10:54:26;6.45;;;3.25;;
16440;SDS011;8330;-33.858;151.184;2023-07-29T10:57:03;4.20;;;2.70;;
16440;SDS011;8330;-33.858;151.184;2023-07-29T11:00:07;4.35;;;2.55;;
16440;SDS011;8330;-33.858;151.184;2023-07-29T11:02:39;5.75;;;2.70;;
16440;SDS011;8330;-33.858;151.184;2023-07-29T11:05:41;5.38;;;2.72;;
16440;SDS011;8330;-33.858;151.184;2023-07-29T11:08:26;9.25;;;6.93;;
16440;SDS011;8330;-33.858;151.184;2023-07-29T11:11:07;8.65;;;5.85;;
16440;SDS011;8330;-33.858;151.184;2023-07-29T11:13:41;11.38;;;7.57;;
16440;SDS011;8330;-33.858;151.184;2023-07-29T11:16:16;7.35;;;6.28;;
16440;SDS011;8330;-33.858;151.184;2023-07-29T11:18:49;7.35;;;4.45;;
16440;SDS011;8330;-33.858;151.184;2023-07-29T11:21:21;7.68;;;4.68;;
16440;SDS011;8330;-33.858;151.184;2023-07-29T11:23:57;5.65;;;3.60;;
16440;SDS011;8330;-33.858;151.184;2023-07-29T11:26:38;7.13;;;3.10;;
16440;SDS011;8330;-33.858;151.184;2023-07-29T11:29:26;6.15;;;3.47;;
16440;SDS011;8330;-33.858;151.184;2023-07-29T11:32:10;4.55;;;3.10;;
16440;SDS011;8330;-33.858;151.184;2023-07-29T11:34:48;6.95;;;3.20;;
16440;SDS011;8330;-33.858;151.184;2023-07-29T11:37:37;6.35;;;3.50;;
16440;SDS011;8330;-33.858;151.184;2023-07-29T11:40:22;7.00;;;3.13;;
16440;SDS011;8330;-33.858;151.184;2023-07-29T11:43:28;6.68;;;3.78;;
16440;SDS011;8330;-33.858;151.184;2023-07-29T11:46:12;6.65;;;4.10;;
16440;SDS011;8330;-33.858;151.184;2023-07-29T11:48:57;5.13;;;3.97;;
16440;SDS011;8330;-33.858;151.184;2023-07-29T11:51:46;8.10;;;4.28;;
16440;SDS011;8330;-33.858;151.184;2023-07-29T11:54:25;6.85;;;4.05;;
16440;SDS011;8330;-33.858;151.184;2023-07-29T11:57:08;6.53;;;3.83;;
16440;SDS011;8330;-33.858;151.184;2023-07-29T11:59:54;6.10;;;3.80;;
16440;SDS011;8330;-33.858;151.184;2023-07-29T12:02:40;7.05;;;3.58;;
16440;SDS011;8330;-33.858;151.184;2023-07-29T12:05:18;6.40;;;4.07;;
16440;SDS011;8330;-33.858;151.184;2023-07-29T12:07:54;8.82;;;4.72;;
16440;SDS011;8330;-33.858;151.184;2023-07-29T12:10:31;6.80;;;4.55;;
16440;SDS011;8330;-33.858;151.184;2023-07-29T12:13:23;7.35;;;4.30;;
16440;SDS011;8330;-33.858;151.184;2023-07-29T12:16:07;4.85;;;4.07;;
16440;SDS011;8330;-33.858;151.184;2023-07-29T12:18:50;10.65;;;6.95;;
16440;SDS011;8330;-33.858;151.184;2023-07-29T12:21:28;8.30;;;5.32;;
16440;SDS011;8330;-33.858;151.184;2023-07-29T12:24:05;7.90;;;4.80;;
16440;SDS011;8330;-33.858;151.184;2023-07-29T12:26:48;7.00;;;4.97;;
16440;SDS011;8330;-33.858;151.184;2023-07-29T12:29:30;7.82;;;4.97;;
16440;SDS011;8330;-33.858;151.184;2023-07-29T12:32:16;8.23;;;4.75;;
16440;SDS011;8330;-33.858;151.184;2023-07-29T12:34:48;8.90;;;4.30;;
16440;SDS011;8330;-33.858;151.184;2023-07-29T12:37:31;7.43;;;4.78;;
16440;SDS011;8330;-33.858;151.184;2023-07-29T12:40:23;6.75;;;4.90;;
16440;SDS011;8330;-33.858;151.184;2023-07-29T12:42:57;6.07;;;4.80;;
16440;SDS011;8330;-33.858;151.184;2023-07-29T12:45:38;7.93;;;4.85;;
16440;SDS011;8330;-33.858;151.184;2023-07-29T12:48:46;5.97;;;4.57;;
16440;SDS011;8330;-33.858;151.184;2023-07-29T12:51:27;8.77;;;5.13;;
16440;SDS011;8330;-33.858;151.184;2023-07-29T12:53:58;9.85;;;5.13;;
16440;SDS011;8330;-33.858;151.184;2023-07-29T12:56:35;8.05;;;5.28;;
16440;SDS011;8330;-33.858;151.184;2023-07-29T13:02:01;7.00;;;4.88;;
16440;SDS011;8330;-33.858;151.184;2023-07-29T13:04:46;6.80;;;4.90;;
16440;SDS011;8330;-33.858;151.184;2023-07-29T13:07:28;6.70;;;5.03;;
16440;SDS011;8330;-33.858;151.184;2023-07-29T13:10:17;5.65;;;4.57;;
16440;SDS011;8330;-33.858;151.184;2023-07-29T13:12:59;9.57;;;5.22;;
16440;SDS011;8330;-33.858;151.184;2023-07-29T13:15:36;9.52;;;5.00;;
16440;SDS011;8330;-33.858;151.184;2023-07-29T13:18:12;8.02;;;4.88;;
16440;SDS011;8330;-33.858;151.184;2023-07-29T13:20:49;6.43;;;4.70;;
16440;SDS011;8330;-33.858;151.184;2023-07-29T13:23:35;7.65;;;4.55;;
16440;SDS011;8330;-33.858;151.184;2023-07-29T13:26:07;8.10;;;5.15;;
16440;SDS011;8330;-33.858;151.184;2023-07-29T13:28:38;8.40;;;5.20;;
16440;SDS011;8330;-33.858;151.184;2023-07-29T13:31:10;7.47;;;5.18;;
16440;SDS011;8330;-33.858;151.184;2023-07-29T13:33:41;7.18;;;5.07;;
16440;SDS011;8330;-33.858;151.184;2023-07-29T13:36:14;7.88;;;5.15;;
16440;SDS011;8330;-33.858;151.184;2023-07-29T13:38:47;9.35;;;5.20;;
16440;SDS011;8330;-33.858;151.184;2023-07-29T13:41:18;7.90;;;5.22;;
16440;SDS011;8330;-33.858;151.184;2023-07-29T13:43:50;7.03;;;5.00;;
16440;SDS011;8330;-33.858;151.184;2023-07-29T13:46:21;7.60;;;5.20;;
16440;SDS011;8330;-33.858;151.184;2023-07-29T13:48:53;9.32;;;5.47;;
16440;SDS011;8330;-33.858;151.184;2023-07-29T13:51:27;7.50;;;5.60;;
16440;SDS011;8330;-33.858;151.184;2023-07-29T13:53:58;7.15;;;5.35;;
16440;SDS011;8330;-33.858;151.184;2023-07-29T13:56:30;8.25;;;5.25;;
16440;SDS011;8330;-33.858;151.184;2023-07-29T13:59:01;8.88;;;5.80;;
16440;SDS011;8330;-33.858;151.184;2023-07-29T14:01:32;8.43;;;5.32;;
16440;SDS011;8330;-33.858;151.184;2023-07-29T14:04:03;7.10;;;5.85;;
16440;SDS011;8330;-33.858;151.184;2023-07-29T14:06:37;7.85;;;5.95;;
16440;SDS011;8330;-33.858;151.184;2023-07-29T14:09:09;6.93;;;5.50;;
16440;SDS011;8330;-33.858;151.184;2023-07-29T14:11:41;9.15;;;5.63;;
16440;SDS011;8330;-33.858;151.184;2023-07-29T14:14:11;11.18;;;5.15;;
16440;SDS011;8330;-33.858;151.184;2023-07-29T14:16:43;8.75;;;5.50;;
16440;SDS011;8330;-33.858;151.184;2023-07-29T14:19:15;6.80;;;5.05;;
16440;SDS011;8330;-33.858;151.184;2023-07-29T14:21:48;8.63;;;5.22;;
16440;SDS011;8330;-33.858;151.184;2023-07-29T14:24:18;6.32;;;5.03;;
16440;SDS011;8330;-33.858;151.184;2023-07-29T14:26:49;8.32;;;5.50;;
16440;SDS011;8330;-33.858;151.184;2023-07-29T14:29:20;8.15;;;5.47;;
16440;SDS011;8330;-33.858;151.184;2023-07-29T14:31:52;6.85;;;4.88;;
16440;SDS011;8330;-33.858;151.184;2023-07-29T14:34:23;6.72;;;4.50;;
16440;SDS011;8330;-33.858;151.184;2023-07-29T14:36:57;7.28;;;5.07;;
16440;SDS011;8330;-33.858;151.184;2023-07-29T14:39:29;6.65;;;4.75;;
16440;SDS011;8330;-33.858;151.184;2023-07-29T14:42:03;7.03;;;4.63;;
16440;SDS011;8330;-33.858;151.184;2023-07-29T14:44:42;6.85;;;4.72;;
16440;SDS011;8330;-33.858;151.184;2023-07-29T14:47:12;8.60;;;5.72;;
16440;SDS011;8330;-33.858;151.184;2023-07-29T14:49:44;6.25;;;5.03;;
16440;SDS011;8330;-33.858;151.184;2023-07-29T14:52:19;7.00;;;4.78;;
16440;SDS011;8330;-33.858;151.184;2023-07-29T14:54:49;7.30;;;5.47;;
16440;SDS011;8330;-33.858;151.184;2023-07-29T14:57:20;9.15;;;5.78;;
16440;SDS011;8330;-33.858;151.184;2023-07-29T14:59:51;8.38;;;5.60;;
16440;SDS011;8330;-33.858;151.184;2023-07-29T15:02:22;11.25;;;6.28;;
16440;SDS011;8330;-33.858;151.184;2023-07-29T15:04:55;9.27;;;6.20;;
16440;SDS011;8330;-33.858;151.184;2023-07-29T15:07:39;9.13;;;6.43;;
16440;SDS011;8330;-33.858;151.184;2023-07-29T15:10:13;7.93;;;5.60;;